Eagle Torrance — 9VMG5 — position and weather

sailwx.info

Track history (hours):
 
Tides and Currents Weather Stations Pressure Air Temp Water Temp Dewpoint Dewpoint Depression Visibility Wind Speed Wind Dir Waves Ship Positions

Eagle Torrance

Last reported at 2018-Jan-19 22:31 UTC. Time now 2018-Jan-22 00:06 UTC.
Position N 30°01' W 093°60'.

Length 246 m; draft 8.7 m.

Type: Tanker. MMSI: 565526000.

Date/timePositionNaut miles runAvg speedWind from/ knotsBaromVisibWave heightAir tempDewpointWater temp
2018-Jan-19 22:31N 30°01' W 093°60'8 4.4
2018-Jan-19 20:41N 29°56' W 093°52'1 6.9
2018-Jan-19 20:30N 29°55' W 093°53'4 7.3
2018-Jan-19 19:58N 29°52' W 093°56'3 5.9
2018-Jan-19 19:28N 29°50' W 093°57'12 7.8
2018-Jan-19 17:55N 29°40' W 093°50'17 4.5
2018-Jan-19 14:13N 29°26' W 093°39'0 0.0
2018-Jan-19 13:54N 29°26' W 093°39'0 0.0
2018-Jan-19 13:27N 29°26' W 093°39'0 0.0
2018-Jan-19 12:49N 29°26' W 093°39'0 0.0
2018-Jan-19 12:16N 29°26' W 093°39'0 0.1
2018-Jan-19 11:51N 29°26' W 093°39'0 0.0
2018-Jan-19 11:16N 29°26' W 093°39'0 0.0
2018-Jan-19 10:48N 29°26' W 093°39'  
2018-Jan-10 07:54N 29°13' W 094°32'1411.3
2018-Jan-10 06:38N 29°21' W 094°46'311.3
2018-Jan-10 06:20N 29°23' W 094°49'411.0
2018-Jan-10 06:01N 29°26' W 094°50'611.0
2018-Jan-10 05:30N 29°31' W 094°53'510.8
2018-Jan-10 05:01N 29°36' W 094°57'5 9.8
2018-Jan-10 04:31N 29°40' W 094°59'4 7.7
2018-Jan-10 04:00N 29°43' W 095°01'0 0.1
2018-Jan-09 22:39N 29°44' W 095°01'  
Track history (hours):
 
Tides and Currents Weather Stations Pressure Air Temp Water Temp Dewpoint Dewpoint Depression Visibility Wind Speed Wind Dir Waves Ship Positions

Eagle Torrance

Last reported at 2018-Jan-19 22:31 UTC. Time now 2018-Jan-22 00:06 UTC.
Position N 30°01' W 093°60'.

Length 246 m; draft 8.7 m.

Type: Tanker. MMSI: 565526000.

Date/timePositionNaut miles runAvg speedWind from/ knotsBaromVisibWave heightAir tempDewpointWater temp
2018-Jan-19 22:31N 30°01' W 093°60'8 4.4
2018-Jan-19 20:41N 29°56' W 093°52'1 6.9
2018-Jan-19 20:30N 29°55' W 093°53'4 7.3
2018-Jan-19 19:58N 29°52' W 093°56'3 5.9
2018-Jan-19 19:28N 29°50' W 093°57'12 7.8
2018-Jan-19 17:55N 29°40' W 093°50'17 4.5
2018-Jan-19 14:13N 29°26' W 093°39'0 0.0
2018-Jan-19 13:54N 29°26' W 093°39'0 0.0
2018-Jan-19 13:27N 29°26' W 093°39'0 0.0
2018-Jan-19 12:49N 29°26' W 093°39'0 0.0
2018-Jan-19 12:16N 29°26' W 093°39'0 0.1
2018-Jan-19 11:51N 29°26' W 093°39'0 0.0
2018-Jan-19 11:16N 29°26' W 093°39'0 0.0
2018-Jan-19 10:48N 29°26' W 093°39'  
2018-Jan-10 07:54N 29°13' W 094°32'1411.3
2018-Jan-10 06:38N 29°21' W 094°46'311.3
2018-Jan-10 06:20N 29°23' W 094°49'411.0
2018-Jan-10 06:01N 29°26' W 094°50'611.0
2018-Jan-10 05:30N 29°31' W 094°53'510.8
2018-Jan-10 05:01N 29°36' W 094°57'5 9.8
2018-Jan-10 04:31N 29°40' W 094°59'4 7.7
2018-Jan-10 04:00N 29°43' W 095°01'0 0.1
2018-Jan-09 22:39N 29°44' W 095°01'  

Dump ship's entire track history